Disclaimer

Please do not use the information listed here in-flight or in-navigation, as they are not provided to us by the airports but are provided by volunteers, so they might be outdated.

Search


Regions


Airport information page

No radio frequency information is available.

Airport informations:
Latitude: 37° 00' 51.93" N
Longitude: 007° 57' 57.28" W
Elevation: 24 feet - 7 meters
Operating hours: Remarks
Operating agency: Civil government, landing fees and diplomatic clearance may be required
Timezone: UTC 0(+1DT) - Last Sunday in March to last Sunday in October
Fuel: N/A

Runway information:
10/28 - 8169 x 148 feet< - >2490 x 45 meters

Recent METARs:
LPFR 210200Z 34004KT CAVOK 13/12 Q1011
LPFR 210230Z 32004KT 9999 FEW025 13/12 Q1011
LPFR 210300Z 35002KT 9999 FEW025 13/11 Q1011

Airport on the map: